createdAt,value
2018-11-10T00:00:58.800Z,81.78
2018-11-10T00:03:29.225Z,81.90
2018-11-10T00:05:58.925Z,81.79
2018-11-10T00:08:29.658Z,82.06
2018-11-10T00:10:59.227Z,82.68
2018-11-10T00:13:31.166Z,82.33
2018-11-10T00:16:01.218Z,82.00
2018-11-10T00:18:33.628Z,81.48
2018-11-10T00:21:04.013Z,81.48
2018-11-10T00:23:33.786Z,81.94
2018-11-10T00:26:03.583Z,82.39
2018-11-10T00:28:38.625Z,82.15
2018-11-10T00:31:08.337Z,82.28
2018-11-10T00:33:38.118Z,82.17
2018-11-10T00:36:07.978Z,81.91
2018-11-10T00:38:37.794Z,82.16
2018-11-10T00:41:07.669Z,82.25
2018-11-10T00:43:37.391Z,82.18
2018-11-10T00:46:07.242Z,82.10
2018-11-10T00:48:36.991Z,82.21
2018-11-10T00:51:06.927Z,82.47
2018-11-10T00:53:36.823Z,82.68
2018-11-10T00:56:06.711Z,82.33
2018-11-10T00:58:39.030Z,82.44
2018-11-10T01:01:08.780Z,82.57
2018-11-10T01:03:38.520Z,82.62
2018-11-10T01:06:08.316Z,82.54
2018-11-10T01:08:38.450Z,82.40
2018-11-10T01:11:08.884Z,82.32
2018-11-10T01:16:30.230Z,82.58
2018-11-10T01:19:00.671Z,82.22
2018-11-10T01:21:30.550Z,82.46
2018-11-10T01:24:00.857Z,82.47
2018-11-10T01:26:32.134Z,82.38
2018-11-10T01:29:02.438Z,82.18
2018-11-10T01:31:32.229Z,82.50
2018-11-10T01:34:02.567Z,82.05
2018-11-10T01:36:32.501Z,81.94
2018-11-10T01:39:04.037Z,81.95
2018-11-10T01:41:33.912Z,81.91
2018-11-10T01:44:03.889Z,81.65
2018-11-10T01:46:35.031Z,81.53
2018-11-10T01:49:05.055Z,82.14
2018-11-10T01:51:35.017Z,82.31
2018-11-10T01:54:04.951Z,82.62
2018-11-10T01:56:34.993Z,82.56
2018-11-10T01:59:05.633Z,82.72
2018-11-10T02:01:35.738Z,82.23
2018-11-10T02:04:06.513Z,82.25
2018-11-10T02:06:36.425Z,82.15
2018-11-10T02:09:09.942Z,82.04
2018-11-10T02:11:40.974Z,82.28
2018-11-10T02:14:11.314Z,81.32
2018-11-10T02:16:41.549Z,81.54
2018-11-10T02:19:12.069Z,82.32
2018-11-10T02:21:42.609Z,82.80
2018-11-10T02:24:13.382Z,82.93
2018-11-10T02:26:43.922Z,83.05
2018-11-10T02:29:14.619Z,83.08
2018-11-10T02:31:51.059Z,83.22
2018-11-10T02:34:21.823Z,83.37
2018-11-10T02:36:51.716Z,83.02
2018-11-10T02:39:22.910Z,83.09
2018-11-10T02:41:53.202Z,83.07
2018-11-10T02:44:23.540Z,83.40
2018-11-10T02:46:53.391Z,83.17
2018-11-10T02:49:28.088Z,82.85
2018-11-10T02:52:01.810Z,82.79
2018-11-10T02:54:37.742Z,82.89
2018-11-10T02:57:10.799Z,82.86
2018-11-10T02:59:40.938Z,83.26
2018-11-10T03:02:12.730Z,83.33
2018-11-10T03:04:42.608Z,83.40
2018-11-10T03:07:12.465Z,83.15
2018-11-10T03:09:42.267Z,83.21
2018-11-10T03:12:12.101Z,82.79
2018-11-10T03:14:41.816Z,83.07
2018-11-10T03:17:12.918Z,82.92
2018-11-10T03:19:42.622Z,82.93
2018-11-10T03:22:12.465Z,82.72
2018-11-10T03:24:42.213Z,82.84
2018-11-10T03:27:12.126Z,83.15
2018-11-10T03:29:41.992Z,83.29
2018-11-10T03:32:12.641Z,83.08
2018-11-10T03:34:42.435Z,83.13
2018-11-10T03:37:12.547Z,82.94
2018-11-10T03:39:42.251Z,82.75
2018-11-10T03:42:12.096Z,82.55
2018-11-10T03:44:41.899Z,82.59
2018-11-10T03:50:02.531Z,82.30
2018-11-10T03:52:32.402Z,82.57
2018-11-10T03:55:02.272Z,82.46
2018-11-10T03:57:32.595Z,81.85
2018-11-10T04:00:02.550Z,82.68
2018-11-10T04:02:32.427Z,82.49
2018-11-10T04:05:02.383Z,82.38
2018-11-10T04:07:32.659Z,82.91
2018-11-10T04:10:02.625Z,83.23
2018-11-10T04:12:33.207Z,83.19
2018-11-10T04:15:03.085Z,83.20
2018-11-10T04:17:32.854Z,82.98
2018-11-10T04:20:02.755Z,83.05
2018-11-10T04:22:35.065Z,82.85
2018-11-10T04:25:06.230Z,82.42
2018-11-10T04:27:35.959Z,82.85
2018-11-10T04:30:06.776Z,82.85
2018-11-10T04:32:37.334Z,82.99
2018-11-10T04:35:07.733Z,83.31
2018-11-10T04:37:37.894Z,83.30
2018-11-10T04:40:08.684Z,83.31
2018-11-10T04:42:38.494Z,83.70
2018-11-10T04:45:09.546Z,83.70
2018-11-10T04:47:39.546Z,83.60
2018-11-10T04:50:10.985Z,83.43
2018-11-10T04:52:41.128Z,83.62
2018-11-10T04:55:12.527Z,83.27
2018-11-10T04:57:43.026Z,83.45
2018-11-10T05:00:14.980Z,83.60
2018-11-10T05:02:45.641Z,83.64
2018-11-10T05:05:38.607Z,83.45
2018-11-10T05:08:08.285Z,83.53
2018-11-10T05:10:38.070Z,83.61
2018-11-10T05:13:07.866Z,83.49
2018-11-10T05:15:37.711Z,83.64
2018-11-10T05:18:07.533Z,83.46
2018-11-10T05:20:37.411Z,83.58
2018-11-10T05:23:07.172Z,83.92
2018-11-10T05:25:36.936Z,83.65
2018-11-10T05:28:06.872Z,83.71
2018-11-10T05:30:36.702Z,83.12
2018-11-10T05:33:06.349Z,83.40
2018-11-10T05:35:35.732Z,83.44
2018-11-10T05:38:05.578Z,83.36
2018-11-10T05:40:35.373Z,83.32
2018-11-10T05:43:05.268Z,83.07
2018-11-10T05:45:35.129Z,83.08
2018-11-10T05:48:04.892Z,83.07
2018-11-10T05:50:34.701Z,83.18
2018-11-10T05:53:04.518Z,83.29
2018-11-10T05:55:34.283Z,83.06
2018-11-10T05:58:04.111Z,83.08
2018-11-10T06:00:33.969Z,83.33
2018-11-10T06:03:03.946Z,83.02
2018-11-10T06:05:34.795Z,83.12
2018-11-10T06:08:04.630Z,82.79
2018-11-10T06:10:34.508Z,82.90
2018-11-10T06:13:04.181Z,82.90
2018-11-10T06:15:34.093Z,82.89
2018-11-10T06:18:03.920Z,82.96
2018-11-10T06:20:33.726Z,82.82
2018-11-10T06:23:03.626Z,83.25
2018-11-10T06:25:33.797Z,82.90
2018-11-10T06:28:03.583Z,83.36
2018-11-10T06:30:33.596Z,83.23
2018-11-10T06:33:03.548Z,83.12
2018-11-10T06:35:33.400Z,83.54
2018-11-10T06:38:03.332Z,82.78
2018-11-10T06:40:33.156Z,82.91
2018-11-10T06:43:02.968Z,83.64
2018-11-10T06:45:32.733Z,83.88
2018-11-10T06:48:02.544Z,81.55
2018-11-10T06:50:32.291Z,79.73
2018-11-10T06:53:02.088Z,79.26
2018-11-10T06:55:31.978Z,78.55
2018-11-10T06:58:01.861Z,77.53
2018-11-10T07:00:31.720Z,76.44
2018-11-10T07:03:01.546Z,75.17
2018-11-10T07:05:31.347Z,74.50
2018-11-10T07:08:01.254Z,73.41
2018-11-10T07:10:31.362Z,71.99
2018-11-10T07:13:01.232Z,71.54
2018-11-10T07:15:31.060Z,71.27
2018-11-10T07:18:00.927Z,70.54
2018-11-10T07:20:30.779Z,69.45
2018-11-10T07:23:00.762Z,69.16
2018-11-10T07:25:30.561Z,68.43
2018-11-10T07:28:00.811Z,66.89
2018-11-10T07:30:30.627Z,66.31
2018-11-10T07:33:00.481Z,65.29
2018-11-10T07:35:30.278Z,65.25
2018-11-10T07:40:51.467Z,62.92
2018-11-10T07:43:21.218Z,62.62
2018-11-10T07:45:51.088Z,62.42
2018-11-10T07:48:20.843Z,62.20
2018-11-10T07:50:50.703Z,61.27
2018-11-10T07:53:20.878Z,59.60
2018-11-10T07:55:51.094Z,59.70
2018-11-10T07:58:25.751Z,59.68
2018-11-10T08:01:00.484Z,59.80
2018-11-10T08:03:36.100Z,59.30
2018-11-10T08:06:07.219Z,59.62
2018-11-10T08:08:37.086Z,58.62
2018-11-10T08:11:07.432Z,57.96
2018-11-10T08:13:37.279Z,58.60
2018-11-10T08:16:07.575Z,58.49
2018-11-10T08:18:37.684Z,57.95
2018-11-10T08:21:07.927Z,58.46
2018-11-10T08:23:37.779Z,58.70
2018-11-10T08:26:09.294Z,57.36
2018-11-10T08:28:40.961Z,58.13
2018-11-10T08:31:10.943Z,57.76
2018-11-10T08:33:40.983Z,57.23
2018-11-10T08:36:10.773Z,57.21
2018-11-10T08:38:40.807Z,57.00
2018-11-10T08:41:11.147Z,56.87
2018-11-10T08:43:40.998Z,56.15
2018-11-10T08:46:10.836Z,56.25
2018-11-10T08:48:40.789Z,56.82
2018-11-10T08:51:10.609Z,55.84
2018-11-10T08:53:40.593Z,53.95
2018-11-10T08:56:10.594Z,53.76
2018-11-10T08:58:40.912Z,54.72
2018-11-10T09:01:10.883Z,56.17
2018-11-10T09:03:40.660Z,56.07
2018-11-10T09:06:10.483Z,55.90
2018-11-10T09:08:40.216Z,54.65
2018-11-10T09:11:10.639Z,52.49
2018-11-10T09:13:40.555Z,53.95
2018-11-10T09:16:13.914Z,54.85
2018-11-10T09:18:43.615Z,52.45
2018-11-10T09:21:13.503Z,51.93
2018-11-10T09:23:43.472Z,52.66
2018-11-10T09:26:13.527Z,51.63
2018-11-10T09:28:43.388Z,51.31
2018-11-10T09:31:13.269Z,52.11
2018-11-10T09:33:43.006Z,51.18
2018-11-10T09:36:13.083Z,51.51
2018-11-10T09:38:43.451Z,52.16
2018-11-10T09:41:13.203Z,51.64
2018-11-10T09:43:43.059Z,52.82
2018-11-10T09:46:12.930Z,52.76
2018-11-10T09:48:42.851Z,51.29
2018-11-10T09:51:12.686Z,51.83
2018-11-10T09:53:44.186Z,51.96
2018-11-10T09:56:15.041Z,49.75
2018-11-10T09:58:44.868Z,49.70
2018-11-10T10:01:15.403Z,50.46
2018-11-10T10:03:45.107Z,49.42
2018-11-10T10:06:14.891Z,50.06
2018-11-10T10:08:44.918Z,49.98
2018-11-10T10:11:14.746Z,49.11
2018-11-10T10:13:44.601Z,48.28
2018-11-10T10:16:14.530Z,49.14
2018-11-10T10:18:44.649Z,49.60
2018-11-10T10:21:14.486Z,49.57
2018-11-10T10:23:44.239Z,47.30
2018-11-10T10:26:14.181Z,46.51
2018-11-10T10:28:44.073Z,47.18
2018-11-10T10:31:13.934Z,47.99
2018-11-10T10:33:43.751Z,47.50
2018-11-10T10:36:13.714Z,46.86
2018-11-10T10:38:43.478Z,46.53
2018-11-10T10:41:13.360Z,46.69
2018-11-10T10:43:43.198Z,47.75
2018-11-10T10:46:13.335Z,46.78
2018-11-10T10:48:43.168Z,47.20
2018-11-10T10:51:13.035Z,47.22
2018-11-10T10:53:48.658Z,47.66
2018-11-10T10:56:24.364Z,47.77
2018-11-10T10:58:54.582Z,47.49
2018-11-10T11:01:29.322Z,46.31
2018-11-10T11:04:05.217Z,46.21
2018-11-10T11:06:35.165Z,45.49
2018-11-10T11:09:05.275Z,45.47
2018-11-10T11:11:35.156Z,45.44
2018-11-10T11:14:05.080Z,45.54
2018-11-10T11:16:34.981Z,45.22
2018-11-10T11:19:05.315Z,45.41
2018-11-10T11:21:35.224Z,46.03
2018-11-10T11:24:05.145Z,46.16
2018-11-10T11:26:35.082Z,45.67
2018-11-10T11:29:04.907Z,45.96
2018-11-10T11:31:34.757Z,46.84
2018-11-10T11:34:04.796Z,46.66
2018-11-10T11:36:34.722Z,46.79
2018-11-10T11:39:04.785Z,46.34
2018-11-10T11:41:34.859Z,46.62
2018-11-10T11:44:04.601Z,47.55
2018-11-10T11:46:34.363Z,47.02
2018-11-10T11:49:04.538Z,48.04
2018-11-10T11:51:34.430Z,48.10
2018-11-10T11:54:04.260Z,49.87
2018-11-10T11:56:34.151Z,50.55
2018-11-10T11:59:03.940Z,51.06
2018-11-10T12:01:33.814Z,51.43
2018-11-10T12:04:03.611Z,51.28
2018-11-10T12:06:33.589Z,51.33
2018-11-10T12:09:03.357Z,51.03
2018-11-10T12:11:33.178Z,50.81
2018-11-10T12:14:03.052Z,49.32
2018-11-10T12:16:33.029Z,48.63
2018-11-10T12:19:02.919Z,47.74
2018-11-10T12:21:32.939Z,47.87
2018-11-10T12:24:02.920Z,47.92
2018-11-10T12:26:32.697Z,48.07
2018-11-10T12:29:02.662Z,47.00
2018-11-10T12:31:32.795Z,47.61
2018-11-10T12:34:02.733Z,47.73
2018-11-10T12:36:32.471Z,47.34
2018-11-10T12:39:02.450Z,47.69
2018-11-10T12:41:32.397Z,48.09
2018-11-10T12:44:02.241Z,48.27
2018-11-10T12:46:34.208Z,47.86
2018-11-10T12:49:04.153Z,49.20
2018-11-10T12:51:34.053Z,48.92
2018-11-10T12:54:03.819Z,48.84
2018-11-10T12:56:34.380Z,49.04
2018-11-10T12:59:05.928Z,49.71
2018-11-10T13:01:35.677Z,49.43
2018-11-10T13:04:05.647Z,50.46
2018-11-10T13:06:35.651Z,51.42
2018-11-10T13:09:07.600Z,51.15
2018-11-10T13:11:37.675Z,51.94
2018-11-10T13:19:09.598Z,52.55
2018-11-10T13:22:26.431Z,52.59
2018-11-10T13:25:21.879Z,52.33
2018-11-10T13:28:02.251Z,52.76
2018-11-10T13:30:43.635Z,52.36
2018-11-10T13:33:25.875Z,52.83
2018-11-10T13:39:19.577Z,54.21
2018-11-10T13:41:52.929Z,54.50
2018-11-10T13:44:40.555Z,54.32
2018-11-10T13:50:11.351Z,54.44
2018-11-10T13:52:55.448Z,55.01
2018-11-10T13:55:33.919Z,55.70
2018-11-10T13:58:36.384Z,55.54
2018-11-10T14:01:34.636Z,55.89
2018-11-10T14:12:55.591Z,56.67
2018-11-10T14:15:24.457Z,57.71
2018-11-10T14:17:53.819Z,57.99
2018-11-10T14:20:24.802Z,58.03
2018-11-10T14:22:54.019Z,58.73
2018-11-10T14:25:23.255Z,58.35
2018-11-10T14:27:52.399Z,58.12
2018-11-10T14:30:22.366Z,59.05
2018-11-10T14:32:51.516Z,58.45
2018-11-10T14:35:20.446Z,59.53
2018-11-10T14:37:49.347Z,59.55
2018-11-10T14:40:18.841Z,59.27
2018-11-10T14:42:47.861Z,59.74
2018-11-10T14:45:18.431Z,59.52
2018-11-10T14:47:47.935Z,60.37
2018-11-10T14:50:17.887Z,60.52
2018-11-10T14:52:47.124Z,60.38
2018-11-10T14:55:16.352Z,60.66
2018-11-10T14:57:45.268Z,61.32
2018-11-10T15:00:18.222Z,61.14
2018-11-10T15:02:48.256Z,61.62
2018-11-10T15:05:17.818Z,62.01
2018-11-10T15:07:47.645Z,61.78
2018-11-10T15:10:17.882Z,62.36
2018-11-10T15:12:47.167Z,62.66
2018-11-10T15:15:17.884Z,62.90
2018-11-10T15:17:47.893Z,63.15
2018-11-10T15:20:18.226Z,63.24
2018-11-10T15:22:47.269Z,63.66
2018-11-10T15:25:19.188Z,64.13
2018-11-10T15:27:49.354Z,64.22
2018-11-10T15:30:19.597Z,64.34
2018-11-10T15:32:49.267Z,64.46
2018-11-10T15:35:20.233Z,64.64
2018-11-10T15:37:50.335Z,64.81
2018-11-10T15:40:20.073Z,65.28
2018-11-10T15:42:49.196Z,65.37
2018-11-10T15:45:19.298Z,64.98
2018-11-10T15:47:48.271Z,65.53
2018-11-10T15:50:18.692Z,65.47
2018-11-10T15:52:47.604Z,65.85
2018-11-10T15:55:16.507Z,65.78
2018-11-10T15:57:45.509Z,65.88
2018-11-10T16:00:16.162Z,65.70
2018-11-10T16:02:45.188Z,65.92
2018-11-10T16:05:14.729Z,65.84
2018-11-10T16:07:43.844Z,65.90
2018-11-10T16:10:13.314Z,65.87
2018-11-10T16:12:42.485Z,65.78
2018-11-10T16:15:14.420Z,65.96
2018-11-10T16:17:43.620Z,65.73
2018-11-10T16:20:16.077Z,66.05
2018-11-10T16:22:46.955Z,65.92
2018-11-10T16:25:16.035Z,65.54
2018-11-10T16:27:45.447Z,65.81
2018-11-10T16:30:16.524Z,65.80
2018-11-10T16:32:45.815Z,65.59
2018-11-10T16:35:16.704Z,66.11
2018-11-10T16:37:45.659Z,65.77
2018-11-10T16:40:16.438Z,66.02
2018-11-10T16:42:46.324Z,66.25
2018-11-10T16:45:17.863Z,66.10
2018-11-10T16:47:47.844Z,66.75
2018-11-10T16:50:16.807Z,66.36
2018-11-10T16:52:46.597Z,66.63
2018-11-10T16:55:15.812Z,66.88
2018-11-10T16:57:45.089Z,67.08
2018-11-10T17:00:17.924Z,67.31
2018-11-10T17:02:46.905Z,67.47
2018-11-10T17:05:20.076Z,68.18
2018-11-10T17:07:56.764Z,68.05
2018-11-10T17:10:31.397Z,68.27
2018-11-10T17:13:03.942Z,68.52
2018-11-10T17:15:35.961Z,68.82
2018-11-10T17:18:11.063Z,69.02
2018-11-10T17:20:50.788Z,69.32
2018-11-10T17:23:25.221Z,69.52
2018-11-10T17:26:14.129Z,69.40
2018-11-10T17:28:46.219Z,69.51
2018-11-10T17:31:19.388Z,69.59
2018-11-10T17:33:51.484Z,70.21
2018-11-10T17:36:25.829Z,69.72
2018-11-10T17:39:04.534Z,70.01
2018-11-10T17:41:34.554Z,70.27
2018-11-10T17:44:05.874Z,70.37
2018-11-10T17:46:36.536Z,70.37
2018-11-10T17:49:05.484Z,70.69
2018-11-10T17:51:36.074Z,70.55
2018-11-10T17:54:05.184Z,70.63
2018-11-10T17:56:34.131Z,71.06
2018-11-10T17:59:03.126Z,71.09
2018-11-10T18:01:32.421Z,70.96
2018-11-10T18:04:01.795Z,71.00
2018-11-10T18:06:30.515Z,70.88
2018-11-10T18:08:59.510Z,71.18
2018-11-10T18:11:29.529Z,70.92
2018-11-10T18:13:58.554Z,70.81
2018-11-10T18:16:27.631Z,70.96
2018-11-10T18:18:56.674Z,70.77
2018-11-10T18:21:25.738Z,70.78
2018-11-10T18:23:55.532Z,70.71
2018-11-10T18:26:27.241Z,70.64
2018-11-10T18:28:58.083Z,70.72
2018-11-10T18:31:28.062Z,70.66
2018-11-10T18:34:02.341Z,70.57
2018-11-10T18:36:37.146Z,70.65
2018-11-10T18:39:26.525Z,70.58
2018-11-10T18:41:57.003Z,70.41
2018-11-10T18:44:26.449Z,69.80
2018-11-10T18:46:56.859Z,70.06
2018-11-10T18:49:26.101Z,69.89
2018-11-10T18:51:55.350Z,69.66
2018-11-10T18:54:26.499Z,69.62
2018-11-10T18:56:56.319Z,69.12
2018-11-10T18:59:26.116Z,69.07
2018-11-10T19:01:55.466Z,69.64
2018-11-10T19:04:25.495Z,68.96
2018-11-10T19:06:54.720Z,68.90
2018-11-10T19:12:13.808Z,68.71
2018-11-10T19:14:42.800Z,68.78
2018-11-10T19:17:11.769Z,69.02
2018-11-10T19:22:08.784Z,68.91
2018-11-10T19:24:37.847Z,68.70
2018-11-10T19:27:06.760Z,68.49
2018-11-10T19:29:35.815Z,68.80
2018-11-10T19:32:05.690Z,68.82
2018-11-10T19:34:35.548Z,68.66
2018-11-10T19:37:04.716Z,68.72
2018-11-10T19:39:33.608Z,68.64
2018-11-10T19:42:02.671Z,68.78
2018-11-10T19:44:32.054Z,68.82
2018-11-10T19:47:01.574Z,68.69
2018-11-10T19:49:30.716Z,68.62
2018-11-10T19:52:01.200Z,68.90
2018-11-10T19:54:30.508Z,68.54
2018-11-10T19:56:59.739Z,68.84
2018-11-10T19:59:30.085Z,68.37
2018-11-10T20:01:59.591Z,67.85
2018-11-10T20:04:29.496Z,68.30
2018-11-10T20:06:59.895Z,68.32
2018-11-10T20:09:31.149Z,68.44
2018-11-10T20:12:01.985Z,68.70
2018-11-10T20:14:33.390Z,68.72
2018-11-10T20:17:04.658Z,68.74
2018-11-10T20:19:38.314Z,68.45
2018-11-10T20:22:10.037Z,68.88
2018-11-10T20:24:43.383Z,68.87
2018-11-10T20:27:17.769Z,68.79
2018-11-10T20:29:49.251Z,68.87
2018-11-10T20:32:24.889Z,68.96
2018-11-10T20:34:54.785Z,69.26
2018-11-10T20:37:26.271Z,69.69
2018-11-10T20:39:58.354Z,69.30
2018-11-10T20:42:28.026Z,69.66
2018-11-10T20:45:05.279Z,69.52
2018-11-10T20:47:36.388Z,69.80
2018-11-10T20:50:13.128Z,69.74
2018-11-10T20:52:44.575Z,69.73
2018-11-10T20:55:19.049Z,70.00
2018-11-10T20:57:54.329Z,70.14
2018-11-10T21:00:30.305Z,69.65
2018-11-10T21:03:01.199Z,70.02
2018-11-10T21:05:33.149Z,70.07
2018-11-10T21:08:04.433Z,70.69
2018-11-10T21:10:37.871Z,70.54
2018-11-10T21:13:07.885Z,70.71
2018-11-10T21:15:39.073Z,70.80
2018-11-10T21:18:09.822Z,71.03
2018-11-10T21:20:40.487Z,70.63
2018-11-10T21:23:10.599Z,71.05
2018-11-10T21:25:40.572Z,71.05
2018-11-10T21:28:10.663Z,71.08
2018-11-10T21:30:45.089Z,71.45
2018-11-10T21:33:14.050Z,71.35
2018-11-10T21:35:43.248Z,71.52
2018-11-10T21:38:25.785Z,71.66
2018-11-10T21:41:05.645Z,71.63
2018-11-10T21:43:45.167Z,72.02
2018-11-10T21:48:59.192Z,71.56
2018-11-10T21:51:28.053Z,71.89
2018-11-10T21:53:58.023Z,71.86
2018-11-10T21:56:27.092Z,71.65
2018-11-10T21:58:58.535Z,72.21
2018-11-10T22:01:27.508Z,72.07
2018-11-10T22:03:56.534Z,72.07
2018-11-10T22:06:26.291Z,71.82
2018-11-10T22:08:55.418Z,72.10
2018-11-10T22:11:24.365Z,72.35
2018-11-10T22:13:53.606Z,72.83
2018-11-10T22:16:24.984Z,72.94
2018-11-10T22:18:54.512Z,72.27
2018-11-10T22:21:23.733Z,72.70
2018-11-10T22:23:54.019Z,73.01
2018-11-10T22:26:25.051Z,72.86
2018-11-10T22:28:54.174Z,73.52
2018-11-10T22:31:23.610Z,73.31
2018-11-10T22:33:52.798Z,73.16
2018-11-10T22:36:22.068Z,73.58
2018-11-10T22:38:51.108Z,73.56
2018-11-10T22:41:20.456Z,73.77
2018-11-10T22:43:49.318Z,73.65
2018-11-10T22:46:18.355Z,73.52
2018-11-10T22:48:48.161Z,73.28
2018-11-10T22:51:17.129Z,73.63
2018-11-10T22:53:46.423Z,73.32
2018-11-10T22:56:15.965Z,73.52
2018-11-10T22:58:46.706Z,73.63
2018-11-10T23:01:32.923Z,73.67
2018-11-10T23:04:02.197Z,73.63
2018-11-10T23:06:31.147Z,73.70
2018-11-10T23:09:01.513Z,74.01
2018-11-10T23:11:30.504Z,74.05
2018-11-10T23:14:00.032Z,74.10
2018-11-10T23:16:29.724Z,73.94
2018-11-10T23:18:58.832Z,74.08
2018-11-10T23:21:28.870Z,74.39
2018-11-10T23:23:59.203Z,73.97
2018-11-10T23:26:28.498Z,74.04
2018-11-10T23:28:57.296Z,74.11
2018-11-10T23:31:26.208Z,74.19
2018-11-10T23:33:56.103Z,74.52
2018-11-10T23:36:25.087Z,74.27
2018-11-10T23:38:54.221Z,74.37
2018-11-10T23:41:23.158Z,74.05
2018-11-10T23:43:52.035Z,74.12
2018-11-10T23:46:20.859Z,74.21
2018-11-10T23:48:49.746Z,74.54
2018-11-10T23:51:19.708Z,74.12
2018-11-10T23:53:48.579Z,74.36
2018-11-10T23:56:17.771Z,74.73
2018-11-10T23:58:46.684Z,75.15
